Time;durP1;ratioP1;P1;durP2;ratioP2;P2;SDS_P1;SDS_P2;PMS_P1;PMS_P2;Temp;Humidity;BMP_temperature;BMP_pressure;BME280_temperature;BME280_humidity;BME280_pressure;Samples;Min_cycle;Max_cycle;Signal;HPM_P1;HPM_P2
2023/03/25 00:02:19;;;;;;;7.10;7.00;;;20.40;65.30;;;;;;5035924;28;20441;-52
2023/03/25 00:04:50;;;;;;;7.00;6.80;;;20.40;65.30;;;;;;5035640;28;21008;-52
2023/03/25 00:07:18;;;;;;;7.30;7.10;;;20.40;65.30;;;;;;5035463;28;20489;-51
2023/03/25 00:09:45;;;;;;;6.90;6.80;;;20.40;65.40;;;;;;5018096;28;20458;-54
2023/03/25 00:12:12;;;;;;;6.70;6.60;;;20.30;65.30;;;;;;5016014;28;20453;-54
2023/03/25 00:14:39;;;;;;;6.97;6.80;;;20.30;65.30;;;;;;5016156;28;20477;-55
2023/03/25 00:17:09;;;;;;;6.90;6.67;;;20.30;65.30;;;;;;5015555;28;20445;-54
2023/03/25 00:19:36;;;;;;;6.70;6.60;;;20.30;65.00;;;;;;5016758;28;20457;-55
2023/03/25 00:22:03;;;;;;;6.73;6.63;;;20.30;65.00;;;;;;5015869;28;20928;-54
2023/03/25 00:24:30;;;;;;;7.23;7.10;;;20.30;65.20;;;;;;5016062;28;20469;-55
2023/03/25 00:26:57;;;;;;;6.73;6.63;;;20.30;65.20;;;;;;5022491;28;21052;-54
2023/03/25 00:29:23;;;;;;;7.13;7.03;;;20.30;65.10;;;;;;5035712;28;20988;-54
2023/03/25 00:31:50;;;;;;;7.53;7.27;;;20.30;65.10;;;;;;5035192;28;20996;-54
2023/03/25 00:34:19;;;;;;;6.73;6.60;;;20.30;65.10;;;;;;5035717;28;20989;-51
2023/03/25 00:36:46;;;;;;;6.80;6.70;;;20.20;64.90;;;;;;5029657;28;20442;-50
2023/03/25 00:39:13;;;;;;;7.73;7.53;;;20.30;65.10;;;;;;5014837;28;20549;-54
2023/03/25 00:41:40;;;;;;;7.43;7.13;;;20.30;65.00;;;;;;5018299;28;20489;-54
2023/03/25 00:44:11;;;;;;;7.23;7.03;;;20.20;65.00;;;;;;5034031;28;20456;-50
2023/03/25 00:46:38;;;;;;;7.80;7.60;;;20.20;64.90;;;;;;5030428;28;20504;-53
2023/03/25 00:49:05;;;;;;;7.20;7.10;;;20.20;65.00;;;;;;5014973;28;20477;-51
2023/03/25 00:51:33;;;;;;;6.70;6.60;;;20.20;64.90;;;;;;5015026;28;20490;-55
2023/03/25 00:54:01;;;;;;;7.03;6.93;;;20.20;64.90;;;;;;5016975;28;20509;-53
2023/03/25 00:56:28;;;;;;;7.10;6.80;;;20.20;64.90;;;;;;5034936;28;20445;-53
2023/03/25 00:58:55;;;;;;;7.00;6.80;;;20.20;64.90;;;;;;5034945;28;20831;-50
2023/03/25 01:01:26;;;;;;;6.93;6.83;;;20.20;64.90;;;;;;5034312;28;20508;-54
2023/03/25 01:03:56;;;;;;;6.57;6.47;;;20.20;64.80;;;;;;5019586;28;20480;-54
2023/03/25 01:06:27;;;;;;;7.33;7.03;;;20.10;64.60;;;;;;5014844;28;20827;-51
2023/03/25 01:08:57;;;;;;;7.10;6.90;;;20.10;64.50;;;;;;5015128;28;20503;-51
2023/03/25 01:11:26;;;;;;;7.60;7.40;;;20.10;64.50;;;;;;5014557;28;20851;-52
2023/03/25 01:13:55;;;;;;;7.20;7.10;;;20.10;64.50;;;;;;5028871;28;21006;-51
2023/03/25 01:16:22;;;;;;;7.50;7.30;;;20.10;64.40;;;;;;5034841;28;20836;-53
2023/03/25 01:18:49;;;;;;;7.40;7.30;;;20.10;64.50;;;;;;5034498;28;20524;-55
2023/03/25 01:21:17;;;;;;;7.00;6.90;;;20.10;64.40;;;;;;5034409;28;20465;-51
2023/03/25 01:23:44;;;;;;;7.03;6.93;;;20.10;64.40;;;;;;5021137;28;20540;-50
2023/03/25 01:26:12;;;;;;;7.10;7.00;;;20.10;64.30;;;;;;5014011;28;20923;-52
2023/03/25 01:28:40;;;;;;;7.37;7.17;;;20.10;64.20;;;;;;5014399;28;20442;-52
2023/03/25 01:31:09;;;;;;;7.20;6.90;;;20.00;64.10;;;;;;5017696;28;20512;-51
2023/03/25 01:33:36;;;;;;;7.40;7.30;;;20.10;64.20;;;;;;5014153;28;20476;-51
2023/03/25 01:36:03;;;;;;;6.87;6.67;;;20.10;64.40;;;;;;5014330;28;20524;-52
2023/03/25 01:38:30;;;;;;;6.73;6.63;;;20.10;64.30;;;;;;5014026;28;20871;-51
2023/03/25 01:40:57;;;;;;;6.70;6.60;;;20.00;64.10;;;;;;5025980;28;20485;-53
2023/03/25 01:43:26;;;;;;;6.83;6.63;;;20.10;64.30;;;;;;5033833;28;20480;-52
2023/03/25 01:45:52;;;;;;;6.93;6.83;;;20.10;64.30;;;;;;5034034;28;20499;-51
2023/03/25 01:48:23;;;;;;;7.23;7.13;;;20.10;64.40;;;;;;5033995;28;20629;-51
2023/03/25 01:50:54;;;;;;;7.17;6.97;;;20.00;64.60;;;;;;5023112;28;20735;-51
2023/03/25 01:53:21;;;;;;;6.97;6.87;;;20.10;64.70;;;;;;5015821;28;20545;-53
2023/03/25 01:55:51;;;;;;;7.47;7.27;;;20.00;64.50;;;;;;5017988;28;20533;-50
2023/03/25 01:58:20;;;;;;;7.23;7.03;;;20.10;64.70;;;;;;5017682;28;20477;-50
2023/03/25 02:00:50;;;;;;;7.57;7.37;;;20.00;64.60;;;;;;5051609;22;20588;-51
2023/03/25 02:03:20;;;;;;;7.13;7.03;;;20.10;64.50;;;;;;5034569;28;20532;-52
2023/03/25 02:05:52;;;;;;;7.10;7.00;;;20.00;64.30;;;;;;5034609;28;20877;-56
2023/03/25 02:08:21;;;;;;;6.60;6.50;;;20.10;64.30;;;;;;5034130;28;20544;-55
2023/03/25 02:10:48;;;;;;;7.23;7.03;;;20.10;64.40;;;;;;5028396;28;20512;-52
2023/03/25 02:13:16;;;;;;;6.50;6.40;;;20.10;64.50;;;;;;5014912;28;20532;-53
2023/03/25 02:15:59;;;;;;;6.50;6.40;;;20.10;64.40;;;;;;5014679;28;20540;-52
2023/03/25 02:18:39;;;;;;;6.50;6.40;;;20.10;64.50;;;;;;5014302;28;20484;-56
2023/03/25 02:21:49;;;;;;;6.80;6.60;;;20.10;64.50;;;;;;5014923;28;20501;-56
2023/03/25 02:24:45;;;;;;;7.30;7.20;;;20.00;64.50;;;;;;5014703;28;20519;-57
2023/03/25 02:27:40;;;;;;;7.30;7.20;;;20.00;64.40;;;;;;5007183;28;20505;-54
2023/03/25 02:30:45;;;;;;;6.70;6.60;;;20.00;64.50;;;;;;5014291;28;20508;-56
2023/03/25 02:33:50;;;;;;;6.33;6.23;;;20.00;64.60;;;;;;5014316;28;20533;-58
2023/03/25 02:37:11;;;;;;;6.83;6.73;;;20.00;64.60;;;;;;4969792;28;20538;-58
2023/03/25 02:39:42;;;;;;;7.07;6.90;;;20.00;64.80;;;;;;4991174;28;20968;-56
2023/03/25 02:42:15;;;;;;;7.00;6.70;;;20.00;64.80;;;;;;4994800;28;20549;-55
2023/03/25 02:44:50;;;;;;;6.97;6.87;;;19.90;64.70;;;;;;5007044;28;20878;-53
2023/03/25 02:47:20;;;;;;;6.53;6.43;;;20.00;64.80;;;;;;5014166;28;20926;-55
2023/03/25 02:49:51;;;;;;;6.73;6.63;;;20.00;64.70;;;;;;5014338;28;20532;-51
2023/03/25 02:52:24;;;;;;;6.40;6.30;;;19.90;64.30;;;;;;5014376;28;20553;-54
2023/03/25 02:54:56;;;;;;;6.63;6.53;;;20.00;64.30;;;;;;5014367;28;20454;-54
2023/03/25 02:57:27;;;;;;;6.60;6.50;;;19.90;64.10;;;;;;5014438;28;20478;-51
2023/03/25 02:59:56;;;;;;;7.10;6.90;;;19.90;64.10;;;;;;5014246;28;20536;-54
2023/03/25 03:02:31;;;;;;;6.87;6.77;;;19.90;64.10;;;;;;5014376;28;20564;-53
2023/03/25 03:04:57;;;;;;;6.70;6.60;;;19.90;64.00;;;;;;5013443;28;20453;-52
2023/03/25 03:07:29;;;;;;;7.20;7.00;;;19.90;64.00;;;;;;5013824;28;20572;-54
2023/03/25 03:10:06;;;;;;;7.33;7.23;;;19.90;63.90;;;;;;5014044;28;20450;-52
2023/03/25 03:12:46;;;;;;;7.20;7.10;;;19.90;63.90;;;;;;5013367;28;20545;-52
2023/03/25 03:15:32;;;;;;;7.37;7.27;;;19.90;63.80;;;;;;5013321;28;20450;-56
2023/03/25 03:18:11;;;;;;;7.20;7.03;;;19.90;63.80;;;;;;5013389;28;20804;-52
2023/03/25 03:20:44;;;;;;;6.90;6.80;;;19.90;63.80;;;;;;5013605;28;20462;-52
2023/03/25 03:23:19;;;;;;;6.70;6.60;;;19.90;63.70;;;;;;5013077;28;20537;-57
2023/03/25 03:25:53;;;;;;;6.83;6.73;;;19.90;63.80;;;;;;5013575;28;20445;-52
2023/03/25 03:28:24;;;;;;;6.80;6.70;;;19.90;63.70;;;;;;5013201;28;20572;-53
2023/03/25 03:30:57;;;;;;;6.90;6.80;;;19.80;63.60;;;;;;5013337;28;20557;-56
2023/03/25 03:33:28;;;;;;;6.73;6.63;;;19.80;63.40;;;;;;5013126;28;20450;-57
2023/03/25 03:36:00;;;;;;;6.87;6.57;;;19.80;64.10;;;;;;5013258;28;20649;-56
2023/03/25 03:38:31;;;;;;;6.97;6.80;;;19.80;63.30;;;;;;5013014;28;20457;-55
2023/03/25 03:41:04;;;;;;;9.23;8.87;;;19.80;63.20;;;;;;5013155;28;20466;-57
2023/03/25 03:43:38;;;;;;;7.30;7.20;;;19.80;63.20;;;;;;5012812;28;20489;-55
2023/03/25 03:46:08;;;;;;;8.03;7.83;;;19.80;63.10;;;;;;5013026;28;20545;-54
2023/03/25 03:48:40;;;;;;;7.40;7.30;;;19.80;63.80;;;;;;5012912;28;21081;-56
2023/03/25 03:51:11;;;;;;;7.17;7.07;;;19.80;63.00;;;;;;5013003;28;20553;-58
2023/03/25 03:53:42;;;;;;;7.43;7.33;;;19.70;62.80;;;;;;5012307;28;20529;-57
2023/03/25 03:56:12;;;;;;;7.30;7.20;;;19.70;63.40;;;;;;5012894;28;20533;-56
2023/03/25 03:58:41;;;;;;;7.30;7.00;;;19.70;62.60;;;;;;5012671;28;20450;-58
2023/03/25 04:01:13;;;;;;;8.10;7.43;;;19.70;62.50;;;;;;5012688;28;20510;-56
2023/03/25 04:03:47;;;;;;;7.30;7.20;;;19.70;62.30;;;;;;5012605;28;20541;-57
2023/03/25 04:06:20;;;;;;;7.37;7.20;;;19.70;62.20;;;;;;5012788;28;20456;-58
2023/03/25 04:08:57;;;;;;;7.20;7.00;;;19.70;62.20;;;;;;5012676;28;20449;-57
2023/03/25 04:11:30;;;;;;;7.50;7.30;;;19.70;62.10;;;;;;5012577;28;20470;-56
2023/03/25 04:13:59;;;;;;;7.60;7.50;;;19.70;62.10;;;;;;5012361;28;20541;-55
2023/03/25 04:16:27;;;;;;;7.70;7.50;;;19.70;62.00;;;;;;5011763;28;20553;-57
2023/03/25 04:18:54;;;;;;;7.90;7.70;;;19.70;62.00;;;;;;5012291;28;20528;-55
2023/03/25 04:21:21;;;;;;;8.27;8.07;;;19.70;62.10;;;;;;5011857;28;21024;-57
2023/03/25 04:23:50;;;;;;;7.97;7.77;;;19.70;62.10;;;;;;5012498;28;20537;-58
2023/03/25 04:26:17;;;;;;;7.77;7.67;;;19.70;62.10;;;;;;5012746;28;20955;-54
2023/03/25 04:28:45;;;;;;;8.00;7.90;;;19.70;62.20;;;;;;5012011;28;20576;-58
2023/03/25 04:31:15;;;;;;;7.43;7.33;;;19.70;62.20;;;;;;5012078;28;20553;-58
2023/03/25 04:33:45;;;;;;;7.00;6.80;;;19.70;62.20;;;;;;5012357;28;20450;-54
2023/03/25 04:36:13;;;;;;;7.17;7.07;;;19.60;62.30;;;;;;5012437;28;20453;-53
2023/03/25 04:38:40;;;;;;;7.10;7.00;;;19.70;62.50;;;;;;5012108;28;20438;-56
2023/03/25 04:41:09;;;;;;;6.97;6.87;;;19.70;62.60;;;;;;5012168;28;20465;-57
2023/03/25 04:43:38;;;;;;;6.67;6.57;;;19.70;62.60;;;;;;5012207;28;20546;-54
2023/03/25 04:46:06;;;;;;;7.40;7.30;;;19.70;62.50;;;;;;5012203;28;20830;-57
2023/03/25 04:48:40;;;;;;;6.70;6.60;;;19.70;62.50;;;;;;5011879;28;20521;-57
2023/03/25 04:51:11;;;;;;;6.70;6.60;;;19.60;62.50;;;;;;5011963;28;20480;-57
2023/03/25 04:53:38;;;;;;;7.00;6.70;;;19.60;62.50;;;;;;5012165;28;20446;-53
2023/03/25 04:56:11;;;;;;;6.83;6.73;;;19.70;62.80;;;;;;5011991;28;20997;-54
2023/03/25 04:58:39;;;;;;;7.10;7.00;;;19.60;62.70;;;;;;5011858;28;20545;-54
2023/03/25 05:01:10;;;;;;;7.23;7.13;;;19.60;62.70;;;;;;5011547;28;20850;-56
2023/03/25 05:03:38;;;;;;;7.10;6.90;;;19.60;62.80;;;;;;5011900;28;20461;-54
2023/03/25 05:06:06;;;;;;;7.83;7.73;;;19.60;62.80;;;;;;5011932;28;20457;-55
2023/03/25 05:08:33;;;;;;;7.17;7.07;;;19.60;62.80;;;;;;5011590;28;20517;-56
2023/03/25 05:11:01;;;;;;;6.97;6.87;;;19.60;62.80;;;;;;5011572;28;20474;-56
2023/03/25 05:13:28;;;;;;;7.20;7.00;;;19.60;62.90;;;;;;5012206;28;20458;-57
2023/03/25 05:15:55;;;;;;;7.57;7.37;;;19.60;63.00;;;;;;5011766;28;20474;-57
2023/03/25 05:18:23;;;;;;;7.37;7.27;;;19.60;63.00;;;;;;5011563;28;20541;-56
2023/03/25 05:20:50;;;;;;;7.40;7.30;;;19.60;62.90;;;;;;5011740;28;20552;-55
2023/03/25 05:23:17;;;;;;;7.47;7.27;;;19.60;63.00;;;;;;5011893;28;20469;-56
2023/03/25 05:25:44;;;;;;;7.50;7.40;;;19.60;62.90;;;;;;5011926;28;20917;-56
2023/03/25 05:28:12;;;;;;;7.70;7.60;;;19.60;62.80;;;;;;5014723;28;20580;-53
2023/03/25 05:30:40;;;;;;;8.33;8.10;;;19.60;62.60;;;;;;5015600;28;20553;-57
2023/03/25 05:33:09;;;;;;;8.10;7.90;;;19.60;62.40;;;;;;5015944;28;20449;-58
2023/03/25 05:35:38;;;;;;;7.93;7.77;;;19.60;62.40;;;;;;5015858;28;20446;-57
2023/03/25 05:38:06;;;;;;;8.10;7.90;;;19.60;62.40;;;;;;5015443;28;20533;-56
2023/03/25 05:40:34;;;;;;;8.17;7.97;;;19.60;62.30;;;;;;5015696;28;20462;-56
2023/03/25 05:43:02;;;;;;;8.60;8.40;;;19.60;62.30;;;;;;5016188;28;20450;-58
2023/03/25 05:45:30;;;;;;;8.00;7.90;;;19.60;62.30;;;;;;5016000;28;20500;-56
2023/03/25 05:47:58;;;;;;;8.37;8.17;;;19.60;62.20;;;;;;5021515;28;20524;-57
2023/03/25 05:50:26;;;;;;;8.23;8.03;;;19.60;62.20;;;;;;5033530;28;20484;-57
2023/03/25 05:52:56;;;;;;;8.40;8.20;;;19.50;62.10;;;;;;5033320;28;20465;-56
2023/03/25 05:55:24;;;;;;;8.40;8.10;;;19.60;62.10;;;;;;5033271;28;20446;-56
2023/03/25 05:57:51;;;;;;;8.37;8.17;;;19.60;62.10;;;;;;5033220;28;20446;-57
2023/03/25 06:00:20;;;;;;;8.53;8.33;;;19.50;62.00;;;;;;5032679;28;20454;-54
2023/03/25 06:02:47;;;;;;;7.80;7.70;;;19.50;62.00;;;;;;5020174;28;20446;-56
2023/03/25 06:05:15;;;;;;;7.73;7.63;;;19.50;61.90;;;;;;5015330;28;20450;-53
2023/03/25 06:07:43;;;;;;;7.43;7.33;;;19.50;61.90;;;;;;5015179;28;20567;-55
2023/03/25 06:10:15;;;;;;;7.70;7.50;;;19.50;61.90;;;;;;5014763;28;20437;-52
2023/03/25 06:12:44;;;;;;;8.17;7.77;;;19.50;61.90;;;;;;5015179;28;20446;-51
2023/03/25 06:15:13;;;;;;;8.27;8.17;;;19.50;61.80;;;;;;5015304;28;20446;-54
2023/03/25 06:17:40;;;;;;;8.30;8.10;;;19.50;61.80;;;;;;5015099;28;20497;-57
2023/03/25 06:20:10;;;;;;;9.97;9.47;;;19.50;61.80;;;;;;5014947;28;20534;-54
2023/03/25 06:22:38;;;;;;;9.23;9.03;;;19.50;61.70;;;;;;5014801;28;20450;-52
2023/03/25 06:25:06;;;;;;;8.40;8.20;;;19.40;61.60;;;;;;5014833;28;20967;-54
2023/03/25 06:27:39;;;;;;;8.67;8.47;;;19.40;61.50;;;;;;5014665;28;20560;-53
2023/03/25 06:30:08;;;;;;;8.10;8.00;;;19.40;61.40;;;;;;5014366;28;20453;-58
2023/03/25 06:32:35;;;;;;;8.50;8.30;;;19.40;61.30;;;;;;5014608;28;20940;-54
2023/03/25 06:35:02;;;;;;;7.70;7.50;;;19.40;61.30;;;;;;5014573;28;20549;-55
2023/03/25 06:37:29;;;;;;;7.53;7.33;;;19.40;61.30;;;;;;5014004;28;20528;-51
2023/03/25 06:39:58;;;;;;;7.43;7.33;;;19.40;61.30;;;;;;5013658;28;20454;-53
2023/03/25 06:42:25;;;;;;;7.50;7.40;;;19.40;61.50;;;;;;5014249;28;20557;-51
2023/03/25 06:44:54;;;;;;;7.87;7.67;;;19.40;61.50;;;;;;5014188;28;20445;-51
2023/03/25 06:47:21;;;;;;;7.50;7.40;;;19.40;61.40;;;;;;5013715;28;20537;-51
2023/03/25 06:49:49;;;;;;;7.90;7.77;;;19.40;61.30;;;;;;5013930;28;20536;-57
2023/03/25 06:52:16;;;;;;;8.03;7.93;;;19.40;61.20;;;;;;5014076;28;20474;-51
2023/03/25 06:54:43;;;;;;;8.27;7.77;;;19.40;61.90;;;;;;5014002;28;20532;-52
2023/03/25 06:57:10;;;;;;;7.83;7.70;;;19.50;64.20;;;;;;5013757;28;20481;-50
2023/03/25 06:59:36;;;;;;;7.60;7.50;;;19.70;64.90;;;;;;5013985;28;20529;-58
2023/03/25 07:02:05;;;;;;;7.93;7.80;;;19.80;65.20;;;;;;5014882;28;20584;-58
2023/03/25 07:04:33;;;;;;;7.40;7.10;;;19.90;64.70;;;;;;5015162;28;20943;-57
2023/03/25 07:07:00;;;;;;;7.47;7.37;;;20.00;63.90;;;;;;5015263;28;20454;-57
2023/03/25 07:09:27;;;;;;;8.00;7.80;;;20.00;63.90;;;;;;5015446;28;20516;-58
2023/03/25 07:11:54;;;;;;;7.83;7.63;;;20.20;63.80;;;;;;5016160;28;20553;-59
2023/03/25 07:14:21;;;;;;;7.50;7.40;;;20.20;63.70;;;;;;5015118;28;20536;-54
2023/03/25 07:16:48;;;;;;;8.67;8.37;;;20.30;63.50;;;;;;5015744;28;21002;-53
2023/03/25 07:19:16;;;;;;;8.10;7.90;;;20.40;63.00;;;;;;5015368;28;20860;-53
2023/03/25 07:21:43;;;;;;;7.60;7.47;;;20.50;62.60;;;;;;5015422;28;20549;-57
2023/03/25 07:24:10;;;;;;;8.37;8.07;;;20.50;62.30;;;;;;5017188;28;20466;-60
2023/03/25 07:26:37;;;;;;;9.90;8.80;;;20.60;62.40;;;;;;5017779;28;20473;-61
2023/03/25 07:29:05;;;;;;;8.73;8.43;;;20.60;62.60;;;;;;5017439;28;20907;-61
2023/03/25 07:31:32;;;;;;;8.27;8.07;;;20.70;62.60;;;;;;5016262;28;20495;-63
2023/03/25 07:33:59;;;;;;;8.73;8.53;;;20.70;62.60;;;;;;5016437;28;20483;-59
2023/03/25 07:36:27;;;;;;;9.10;8.80;;;20.80;62.50;;;;;;5016416;28;20943;-61
2023/03/25 07:38:54;;;;;;;8.47;8.00;;;20.80;62.90;;;;;;5015814;28;20533;-56
2023/03/25 07:41:21;;;;;;;8.90;8.67;;;20.90;63.10;;;;;;5015539;28;20900;-58
2023/03/25 07:43:48;;;;;;;9.47;8.90;;;21.00;63.40;;;;;;5015140;28;20603;-61
2023/03/25 07:46:15;;;;;;;8.20;8.00;;;21.10;63.00;;;;;;5015585;28;20547;-60
2023/03/25 07:48:42;;;;;;;8.37;8.13;;;21.10;62.80;;;;;;5014514;28;20559;-57
2023/03/25 07:51:09;;;;;;;8.33;8.13;;;21.20;63.40;;;;;;5015932;28;20474;-58
2023/03/25 07:53:41;;;;;;;8.43;8.23;;;21.20;62.90;;;;;;5015471;28;20472;-59
2023/03/25 07:56:09;;;;;;;8.43;8.23;;;21.30;63.80;;;;;;5015570;28;20477;-61
2023/03/25 07:58:36;;;;;;;8.20;8.00;;;21.30;62.70;;;;;;5014766;28;20521;-60
2023/03/25 08:01:03;;;;;;;8.50;8.20;;;21.30;62.10;;;;;;5029750;22;20498;-49
2023/03/25 08:03:30;;;;;;;8.60;8.40;;;21.40;62.10;;;;;;5013006;28;20469;-55
2023/03/25 08:06:00;;;;;;;8.63;8.43;;;21.40;62.00;;;;;;5012772;28;20442;-53
2023/03/25 08:08:28;;;;;;;8.70;8.50;;;21.40;61.50;;;;;;4993055;28;20518;-49
2023/03/25 08:10:57;;;;;;;8.23;8.00;;;21.50;61.30;;;;;;4993186;28;20471;-49
2023/03/25 08:13:24;;;;;;;8.70;8.50;;;21.50;60.70;;;;;;4993252;28;20533;-52
2023/03/25 08:15:51;;;;;;;8.30;8.10;;;21.50;60.50;;;;;;4992943;28;20958;-50
2023/03/25 08:18:19;;;;;;;9.17;8.60;;;21.60;60.50;;;;;;5012007;28;20500;-50
2023/03/25 08:20:46;;;;;;;9.63;8.80;;;21.50;60.20;;;;;;5012571;28;20807;-50
2023/03/25 08:23:18;;;;;;;8.73;8.43;;;21.60;60.30;;;;;;5012792;28;20553;-52
2023/03/25 08:25:52;;;;;;;10.37;10.07;;;21.60;60.90;;;;;;5012120;28;20461;-52
2023/03/25 08:28:22;;;;;;;9.47;9.27;;;21.60;61.10;;;;;;5011810;28;20486;-51
2023/03/25 08:30:53;;;;;;;8.43;8.27;;;21.70;61.10;;;;;;5012783;28;20473;-50
2023/03/25 08:33:21;;;;;;;8.90;8.60;;;21.70;60.90;;;;;;5012726;28;20936;-53
2023/03/25 08:35:49;;;;;;;8.43;8.23;;;21.70;60.80;;;;;;5012851;28;20474;-51
2023/03/25 08:38:16;;;;;;;9.40;8.90;;;21.70;60.70;;;;;;5012448;28;20789;-52
2023/03/25 08:40:43;;;;;;;9.33;8.93;;;21.80;61.10;;;;;;5012600;28;20528;-51
2023/03/25 08:43:10;;;;;;;9.10;8.83;;;21.80;61.10;;;;;;5012779;28;20488;-53
2023/03/25 08:45:38;;;;;;;9.10;8.80;;;21.80;61.50;;;;;;5012737;28;20526;-52
2023/03/25 08:48:06;;;;;;;9.07;8.87;;;21.90;61.30;;;;;;5012313;28;20481;-51
2023/03/25 08:50:33;;;;;;;8.87;8.50;;;21.90;60.70;;;;;;5012190;28;20530;-54
2023/03/25 08:52:59;;;;;;;8.10;7.90;;;21.90;60.30;;;;;;5012618;28;20874;-52
2023/03/25 08:55:26;;;;;;;8.13;7.83;;;21.90;60.10;;;;;;5012319;28;20521;-50
2023/03/25 08:57:53;;;;;;;7.90;7.70;;;21.90;59.80;;;;;;5012197;28;20486;-54
2023/03/25 09:00:23;;;;;;;8.53;8.23;;;21.90;59.80;;;;;;5012267;28;20470;-52
2023/03/25 09:02:51;;;;;;;8.27;8.07;;;21.90;59.70;;;;;;5011842;28;20461;-54
2023/03/25 09:05:18;;;;;;;8.83;8.63;;;22.00;59.70;;;;;;5011422;28;21031;-53
2023/03/25 09:07:46;;;;;;;8.57;8.27;;;22.00;60.10;;;;;;5011978;28;20450;-51
2023/03/25 09:10:13;;;;;;;8.27;8.07;;;22.00;60.00;;;;;;5011754;28;20569;-50
2023/03/25 09:12:40;;;;;;;9.23;8.83;;;22.00;60.20;;;;;;5011953;28;20836;-53
2023/03/25 09:15:08;;;;;;;9.17;8.87;;;22.00;60.00;;;;;;5011600;28;20939;-51
2023/03/25 09:17:35;;;;;;;9.20;8.90;;;22.00;59.90;;;;;;5011612;28;20862;-50
2023/03/25 09:20:07;;;;;;;9.40;8.83;;;22.00;60.10;;;;;;5012341;28;20533;-50
2023/03/25 09:22:34;;;;;;;8.60;8.40;;;22.00;60.30;;;;;;5012084;28;20473;-53
2023/03/25 09:25:01;;;;;;;9.13;8.80;;;22.10;60.40;;;;;;5012612;28;20546;-48
2023/03/25 09:27:28;;;;;;;9.03;8.80;;;22.10;60.20;;;;;;5012345;28;20533;-51
2023/03/25 09:29:54;;;;;;;9.33;9.00;;;22.10;60.30;;;;;;5012475;28;21069;-50
2023/03/25 09:32:21;;;;;;;8.90;8.60;;;22.20;60.10;;;;;;5012745;28;20871;-50
2023/03/25 09:34:48;;;;;;;8.83;8.53;;;22.20;60.40;;;;;;5012917;28;20478;-54
2023/03/25 09:37:17;;;;;;;8.40;8.10;;;22.20;60.60;;;;;;5012717;28;20442;-55
2023/03/25 09:39:43;;;;;;;8.57;8.20;;;22.20;60.20;;;;;;5012931;28;20473;-50
2023/03/25 09:42:31;;;;;;;8.03;7.83;;;22.20;60.10;;;;;;5012464;28;20466;-56
2023/03/25 09:45:06;;;;;;;8.93;8.53;;;22.30;60.00;;;;;;5002541;28;20473;-51
2023/03/25 09:47:34;;;;;;;8.77;8.47;;;22.20;59.70;;;;;;5012697;28;21023;-54
2023/03/25 09:50:06;;;;;;;9.77;9.37;;;22.20;59.60;;;;;;5012329;28;20484;-51
2023/03/25 09:52:41;;;;;;;8.40;8.20;;;22.20;59.50;;;;;;5012115;28;20466;-59
2023/03/25 09:55:13;;;;;;;8.63;8.33;;;22.20;59.50;;;;;;5011806;28;20532;-50
2023/03/25 09:57:47;;;;;;;8.30;8.10;;;22.20;59.70;;;;;;5011808;28;20522;-52
2023/03/25 10:00:20;;;;;;;8.50;8.30;;;22.20;59.50;;;;;;5012373;28;20446;-51
2023/03/25 10:02:53;;;;;;;8.87;8.63;;;22.20;59.80;;;;;;5012354;28;20477;-52
2023/03/25 10:05:37;;;;;;;8.07;7.77;;;22.30;59.60;;;;;;5012662;28;20630;-54
2023/03/25 10:08:13;;;;;;;8.67;8.37;;;22.30;59.60;;;;;;5012652;28;20529;-57
2023/03/25 10:10:46;;;;;;;8.80;8.60;;;22.30;59.90;;;;;;5012535;28;20576;-57
2023/03/25 10:13:20;;;;;;;8.50;8.20;;;22.30;59.90;;;;;;5011955;28;20886;-58
2023/03/25 10:15:54;;;;;;;9.13;8.93;;;22.30;59.70;;;;;;5014556;28;20474;-59
2023/03/25 10:18:36;;;;;;;9.00;8.77;;;22.30;59.40;;;;;;5014998;28;20461;-52
2023/03/25 10:21:08;;;;;;;7.90;7.70;;;22.30;59.40;;;;;;5015217;28;20667;-53
2023/03/25 10:23:41;;;;;;;8.70;8.37;;;22.40;59.00;;;;;;5014859;28;20537;-53
2023/03/25 10:26:15;;;;;;;8.10;7.90;;;22.40;59.00;;;;;;5015169;28;20537;-53
2023/03/25 10:28:47;;;;;;;8.50;8.30;;;22.40;58.90;;;;;;5014828;28;20492;-54
2023/03/25 10:31:17;;;;;;;8.33;8.13;;;22.40;58.70;;;;;;5015230;28;20565;-52
2023/03/25 10:33:51;;;;;;;8.67;8.47;;;22.40;58.60;;;;;;5015571;28;20529;-54
2023/03/25 10:36:20;;;;;;;9.60;9.10;;;22.50;58.60;;;;;;5015476;28;20536;-55
2023/03/25 10:38:54;;;;;;;8.40;8.20;;;22.50;58.50;;;;;;5014791;28;20441;-54
2023/03/25 10:41:26;;;;;;;8.30;8.10;;;22.50;58.50;;;;;;5015250;28;20466;-54
2023/03/25 10:43:53;;;;;;;9.20;9.00;;;22.50;58.40;;;;;;5014918;28;20461;-53
2023/03/25 10:46:28;;;;;;;9.33;9.13;;;22.50;58.40;;;;;;5015289;28;20481;-55
2023/03/25 10:48:55;;;;;;;9.33;9.03;;;22.50;58.30;;;;;;5015078;28;20489;-54
2023/03/25 10:51:27;;;;;;;9.43;9.13;;;22.50;58.20;;;;;;5014930;28;20497;-51
2023/03/25 10:53:56;;;;;;;8.90;8.60;;;22.50;58.10;;;;;;5014348;28;20473;-56
2023/03/25 10:56:25;;;;;;;8.00;7.90;;;22.60;58.20;;;;;;5014783;28;20866;-55
2023/03/25 10:58:54;;;;;;;8.97;8.70;;;22.60;58.00;;;;;;5015339;28;20442;-54
2023/03/25 11:01:34;;;;;;;8.67;8.47;;;22.60;58.00;;;;;;5015418;28;20506;-53
2023/03/25 11:04:03;;;;;;;8.43;8.13;;;22.60;57.90;;;;;;4995828;28;20547;-56
2023/03/25 11:06:33;;;;;;;8.90;8.60;;;22.60;57.90;;;;;;4995002;28;20449;-53
2023/03/25 11:09:23;;;;;;;8.33;8.13;;;22.60;57.80;;;;;;4994731;28;20573;-50
2023/03/25 11:11:52;;;;;;;8.83;8.50;;;22.60;57.80;;;;;;4996454;28;20455;-52
2023/03/25 11:14:24;;;;;;;9.40;9.20;;;22.70;57.90;;;;;;5014130;28;21081;-51
2023/03/25 11:16:55;;;;;;;8.97;8.77;;;22.70;57.70;;;;;;5013744;28;20441;-52
2023/03/25 11:19:26;;;;;;;10.00;9.40;;;22.70;57.70;;;;;;5013598;28;20533;-51
2023/03/25 11:21:57;;;;;;;9.53;9.17;;;22.70;57.60;;;;;;5013680;28;20529;-55
2023/03/25 11:24:31;;;;;;;9.03;8.83;;;22.70;57.40;;;;;;5013482;28;20485;-56
2023/03/25 11:26:58;;;;;;;9.90;9.50;;;22.70;57.40;;;;;;4994547;28;20529;-59
2023/03/25 11:29:27;;;;;;;16.10;9.10;;;22.70;57.40;;;;;;4994085;28;20565;-52
2023/03/25 11:32:05;;;;;;;9.30;9.00;;;22.70;58.10;;;;;;4993704;28;20833;-49
2023/03/25 11:34:32;;;;;;;7.97;7.77;;;22.80;57.50;;;;;;4999984;28;20446;-51
2023/03/25 11:37:03;;;;;;;9.17;8.60;;;22.80;57.30;;;;;;5013470;28;20450;-53
2023/03/25 11:39:35;;;;;;;8.70;8.50;;;22.70;57.10;;;;;;5014085;28;20448;-61
2023/03/25 11:42:21;;;;;;;8.13;7.90;;;22.80;58.40;;;;;;5013796;28;20465;-58
2023/03/25 11:44:51;;;;;;;8.60;8.40;;;22.80;57.70;;;;;;5013489;28;20524;-58
2023/03/25 11:47:22;;;;;;;9.10;8.80;;;22.80;57.90;;;;;;5013808;28;20521;-56
2023/03/25 11:49:49;;;;;;;8.73;8.53;;;22.80;57.20;;;;;;5013708;28;20517;-50
2023/03/25 11:52:21;;;;;;;9.17;8.87;;;22.80;56.90;;;;;;5013642;28;20466;-51
2023/03/25 11:54:52;;;;;;;9.03;8.83;;;22.80;56.70;;;;;;5013863;28;20875;-50
2023/03/25 11:57:24;;;;;;;9.40;9.00;;;22.90;56.60;;;;;;5012954;28;20481;-52
2023/03/25 12:00:03;;;;;;;8.43;8.23;;;22.90;56.60;;;;;;5013861;28;20438;-51
2023/03/25 12:02:38;;;;;;;9.53;9.13;;;22.90;56.50;;;;;;5013742;28;20485;-50
2023/03/25 12:05:12;;;;;;;9.00;8.80;;;22.90;56.30;;;;;;5013419;28;20489;-50
2023/03/25 12:07:42;;;;;;;9.10;8.77;;;22.90;56.30;;;;;;5013173;28;20488;-50
2023/03/25 12:10:18;;;;;;;8.73;8.47;;;22.90;56.30;;;;;;5012822;28;20569;-50
2023/03/25 12:12:56;;;;;;;8.40;8.20;;;22.90;56.30;;;;;;5013078;28;20508;-50
2023/03/25 12:15:33;;;;;;;8.30;8.00;;;23.00;56.30;;;;;;5013013;28;20474;-53
2023/03/25 12:18:14;;;;;;;8.60;8.40;;;23.00;56.40;;;;;;5013120;28;20477;-50
2023/03/25 12:20:54;;;;;;;8.97;8.67;;;23.00;56.40;;;;;;5012623;28;20450;-50
2023/03/25 12:23:31;;;;;;;9.03;8.83;;;23.00;56.40;;;;;;5013090;28;20532;-53
2023/03/25 12:26:09;;;;;;;8.60;8.40;;;23.00;56.40;;;;;;5012959;28;20537;-51
2023/03/25 12:29:06;;;;;;;8.63;8.33;;;23.00;56.30;;;;;;5012588;28;20446;-51
2023/03/25 12:31:45;;;;;;;9.90;9.50;;;22.90;56.30;;;;;;5011459;28;20553;-56
2023/03/25 12:34:22;;;;;;;8.83;8.50;;;22.90;56.80;;;;;;5012395;28;20532;-56
2023/03/25 12:37:04;;;;;;;9.00;8.70;;;22.90;57.30;;;;;;5011732;28;20619;-56
2023/03/25 12:39:52;;;;;;;8.23;8.07;;;22.90;56.90;;;;;;5012524;28;20460;-57
2023/03/25 12:42:32;;;;;;;8.43;8.23;;;22.90;56.80;;;;;;5012858;28;20490;-57
2023/03/25 12:45:15;;;;;;;9.00;8.70;;;22.80;56.70;;;;;;4993218;28;20538;-57
2023/03/25 12:47:48;;;;;;;8.80;8.60;;;22.90;56.80;;;;;;4993211;28;20478;-52
2023/03/25 12:50:27;;;;;;;9.27;9.07;;;22.80;56.70;;;;;;4993185;28;21023;-56
2023/03/25 12:52:59;;;;;;;8.50;8.20;;;22.90;56.80;;;;;;4996128;28;20861;-56
2023/03/25 12:55:58;;;;;;;10.10;9.80;;;22.90;56.70;;;;;;5012674;28;21006;-55
2023/03/25 12:58:48;;;;;;;8.13;7.90;;;22.90;56.60;;;;;;5011936;28;20537;-56
2023/03/25 13:01:22;;;;;;;7.90;7.70;;;22.90;56.50;;;;;;5012194;28;20904;-51
2023/03/25 13:04:09;;;;;;;9.20;9.00;;;22.90;56.80;;;;;;5011862;28;20533;-54
2023/03/25 13:06:42;;;;;;;8.70;8.50;;;23.00;57.70;;;;;;5012801;28;20477;-53